Time;durP1;ratioP1;P1;durP2;ratioP2;P2;SDS_P1;SDS_P2;PMS_P1;PMS_P2;Temp;Humidity;BMP_temperature;BMP_pressure;BME280_temperature;BME280_humidity;BME280_pressure;Samples;Min_cycle;Max_cycle;Signal;HPM_P1;HPM_P2
2023/01/11 04:56:03;;;;;;;6.50;4.62;;;;;;;2.03;100.00;100657.94;5380701;28;20124;-84
2023/01/11 04:59:06;;;;;;;7.90;4.75;;;;;;;1.96;100.00;100666.47;5307478;33;34720;-83
2023/01/11 05:02:09;;;;;;;12.10;5.45;;;;;;;2.11;100.00;100648.56;5307371;33;34054;-84
2023/01/11 05:05:12;;;;;;;7.35;5.30;;;;;;;2.09;100.00;100647.81;5307088;33;34180;-84
2023/01/11 05:08:15;;;;;;;11.30;6.03;;;;;;;2.02;100.00;100647.44;5305667;33;32845;-84
2023/01/11 05:11:18;;;;;;;9.98;6.03;;;;;;;1.99;100.00;100647.66;5307184;33;34680;-84
2023/01/11 05:14:20;;;;;;;10.75;5.37;;;;;;;1.96;100.00;100656.72;5306612;33;34351;-84
2023/01/11 05:17:23;;;;;;;13.52;5.87;;;;;;;1.96;100.00;100642.56;5309097;33;34213;-84
2023/01/11 05:20:26;;;;;;;8.57;5.82;;;;;;;2.00;100.00;100628.13;5309469;33;34101;-84
2023/01/11 05:23:29;;;;;;;9.50;5.47;;;;;;;1.90;100.00;100646.56;5310888;33;32572;-84
2023/01/11 05:26:35;;;;;;;10.38;5.47;;;;;;;1.86;100.00;100654.84;5308710;33;34147;-84
2023/01/11 05:29:38;;;;;;;9.70;6.20;;;;;;;1.77;100.00;100649.28;5307771;33;34274;-83
2023/01/11 05:32:40;;;;;;;10.15;6.22;;;;;;;1.75;100.00;100659.16;5307908;33;34977;-84
2023/01/11 05:35:43;;;;;;;12.45;6.22;;;;;;;1.70;100.00;100663.97;5310388;33;34371;-84
2023/01/11 05:38:49;;;;;;;11.18;6.30;;;;;;;1.77;100.00;100659.03;5310275;33;34231;-84
2023/01/11 05:41:52;;;;;;;10.05;5.80;;;;;;;1.79;100.00;100659.78;5313892;33;34233;-84
2023/01/11 05:48:17;;;;;;;10.60;6.53;;;;;;;1.74;100.00;100644.19;5308254;33;34196;-84
2023/01/11 05:51:21;;;;;;;7.87;5.82;;;;;;;1.65;100.00;100644.88;5307351;33;34407;-83
2023/01/11 05:54:24;;;;;;;10.90;6.07;;;;;;;1.74;100.00;100640.69;5307100;33;34105;-83
2023/01/11 05:57:26;;;;;;;11.43;6.78;;;;;;;1.68;100.00;100657.09;5307830;33;33932;-84
2023/01/11 06:00:29;;;;;;;9.98;5.57;;;;;;;1.62;100.00;100647.78;5307321;33;34722;-83
2023/01/11 06:03:32;;;;;;;16.75;7.07;;;;;;;1.55;100.00;100630.59;5307224;33;34075;-84
2023/01/11 06:06:35;;;;;;;13.57;6.43;;;;;;;1.66;100.00;100635.09;5309997;33;34611;-83
2023/01/11 06:09:38;;;;;;;10.93;6.37;;;;;;;1.58;100.00;100630.37;5316419;33;33809;-84
2023/01/11 06:12:41;;;;;;;10.70;6.57;;;;;;;1.58;100.00;100638.34;5311137;33;35264;-84
2023/01/11 06:15:44;;;;;;;11.40;6.87;;;;;;;1.55;100.00;100633.25;5311046;33;34401;-84
2023/01/11 06:18:49;;;;;;;10.25;6.43;;;;;;;1.57;100.00;100637.47;5308959;33;35440;-84
2023/01/11 06:21:52;;;;;;;12.65;6.47;;;;;;;1.62;100.00;100644.28;5308011;33;34129;-84
2023/01/11 06:24:55;;;;;;;10.25;5.80;;;;;;;1.59;100.00;100643.53;5307702;33;33814;-85
2023/01/11 06:27:58;;;;;;;12.35;6.50;;;;;;;1.46;100.00;100645.38;5308643;33;34049;-85
2023/01/11 06:31:02;;;;;;;11.52;6.90;;;;;;;1.43;100.00;100640.31;5307099;33;34381;-84
2023/01/11 06:34:05;;;;;;;12.98;6.43;;;;;;;1.46;100.00;100625.97;5304853;33;34340;-84
2023/01/11 06:37:07;;;;;;;15.77;7.15;;;;;;;1.57;100.00;100633.97;5306512;33;34014;-84
2023/01/11 06:40:11;;;;;;;12.98;6.95;;;;;;;1.50;100.00;100651.34;5305040;33;32343;-88
2023/01/11 06:43:14;;;;;;;10.80;6.72;;;;;;;1.52;100.00;100650.25;5306996;33;33819;-88
2023/01/11 06:46:17;;;;;;;13.20;6.78;;;;;;;1.48;100.00;100632.84;5306065;33;34463;-89
2023/01/11 06:49:20;;;;;;;13.43;6.97;;;;;;;1.56;100.00;100640.25;5306449;33;34425;-89
2023/01/11 06:52:23;;;;;;;11.12;6.65;;;;;;;1.47;100.00;100664.81;5307214;33;34475;-85
2023/01/11 06:55:27;;;;;;;11.27;7.20;;;;;;;1.43;100.00;100665.97;5304033;33;33137;-85
2023/01/11 06:58:30;;;;;;;11.25;6.97;;;;;;;1.42;100.00;100672.25;5303769;33;32308;-85
2023/01/11 07:01:33;;;;;;;11.98;6.93;;;;;;;1.44;100.00;100679.16;5301143;33;151611;-84
2023/01/11 07:04:36;;;;;;;12.20;6.57;;;;;;;1.59;100.00;100688.63;5305086;33;34003;-84
2023/01/11 07:07:40;;;;;;;13.40;6.75;;;;;;;1.63;100.00;100677.78;5304359;33;33535;-84
2023/01/11 07:10:44;;;;;;;12.43;7.28;;;;;;;1.70;100.00;100693.16;5305393;33;34797;-84
2023/01/11 07:13:47;;;;;;;12.65;7.25;;;;;;;1.75;100.00;100692.81;5303811;33;32350;-84
2023/01/11 07:16:50;;;;;;;12.32;6.70;;;;;;;1.83;100.00;100700.22;5305191;33;33958;-83
2023/01/11 07:19:53;;;;;;;12.93;7.05;;;;;;;1.77;100.00;100707.66;5295224;33;34980;-84
2023/01/11 07:22:58;;;;;;;13.80;6.90;;;;;;;1.81;100.00;100717.12;5298404;33;34043;-84
2023/01/11 07:26:01;;;;;;;13.93;7.00;;;;;;;1.88;100.00;100724.63;5293249;33;34309;-84
2023/01/11 07:29:04;;;;;;;15.60;6.90;;;;;;;2.00;100.00;100737.81;5296919;33;35121;-84
2023/01/11 07:32:07;;;;;;;11.55;6.68;;;;;;;2.26;100.00;100735.03;5306129;33;34679;-84
2023/01/11 07:35:10;;;;;;;13.95;7.72;;;;;;;2.52;100.00;100732.22;5308952;33;35229;-84
2023/01/11 07:38:12;;;;;;;17.62;7.68;;;;;;;2.68;100.00;100732.72;5312864;33;33607;-83
2023/01/11 07:44:38;;;;;;;12.85;7.12;;;;;;;2.93;100.00;100732.53;5311122;33;35100;-83
2023/01/11 07:47:41;;;;;;;11.68;7.05;;;;;;;3.01;100.00;100737.22;5307364;33;33678;-83
2023/01/11 07:50:44;;;;;;;13.68;7.18;;;;;;;3.30;100.00;100736.72;5309219;33;33905;-84
2023/01/11 07:53:47;;;;;;;14.07;7.15;;;;;;;3.50;100.00;100730.66;5307966;33;33410;-84
2023/01/11 07:56:50;;;;;;;13.20;7.47;;;;;;;3.68;100.00;100725.66;5307794;33;34641;-84
2023/01/11 07:59:53;;;;;;;10.65;6.70;;;;;;;3.82;100.00;100720.06;5305353;33;32271;-84
2023/01/11 08:02:56;;;;;;;9.45;6.40;;;;;;;3.76;100.00;100717.91;5303936;33;33681;-84
2023/01/11 08:06:00;;;;;;;10.98;7.22;;;;;;;3.77;100.00;100722.28;5304596;33;33892;-84
2023/01/11 08:09:03;;;;;;;10.73;6.97;;;;;;;3.60;100.00;100722.81;5304474;33;33588;-84
2023/01/11 08:15:30;;;;;;;10.55;5.95;;;;;;;3.26;100.00;100736.13;5306886;33;35264;-84
2023/01/11 08:18:33;;;;;;;11.32;6.50;;;;;;;3.17;100.00;100742.19;5304949;33;34047;-83
2023/01/11 08:21:36;;;;;;;14.93;7.35;;;;;;;3.05;100.00;100737.84;5305831;33;34467;-84
2023/01/11 08:24:39;;;;;;;13.62;7.53;;;;;;;3.01;100.00;100745.19;5307899;33;34761;-83
2023/01/11 08:27:41;;;;;;;13.40;7.10;;;;;;;2.95;100.00;100737.69;5302485;33;33936;-83
2023/01/11 08:30:44;;;;;;;15.43;7.32;;;;;;;2.92;100.00;100729.97;5307004;33;34033;-84
2023/01/11 08:33:48;;;;;;;11.18;6.32;;;;;;;2.92;100.00;100743.25;5304804;33;33991;-88
2023/01/11 08:36:51;;;;;;;12.02;7.18;;;;;;;2.89;100.00;100752.31;5304625;33;32793;-88
2023/01/11 08:39:55;;;;;;;12.55;7.22;;;;;;;2.87;100.00;100751.63;5298775;33;35528;-88
2023/01/11 08:42:58;;;;;;;17.65;7.10;;;;;;;2.82;100.00;100753.78;5300612;33;34038;-85
2023/01/11 08:46:01;;;;;;;13.77;7.32;;;;;;;2.82;100.00;100758.25;5297279;33;33277;-84
2023/01/11 08:49:10;;;;;;;12.02;7.47;;;;;;;2.93;100.00;100751.12;5302338;33;34535;-84
2023/01/11 08:52:13;;;;;;;11.10;7.27;;;;;;;3.17;100.00;100742.19;5303914;33;33910;-84
2023/01/11 08:55:16;;;;;;;15.73;7.72;;;;;;;3.26;100.00;100744.12;5303672;33;32972;-84
2023/01/11 08:58:20;;;;;;;13.55;7.30;;;;;;;3.27;100.00;100751.12;5299160;33;33930;-84
2023/01/11 09:01:23;;;;;;;12.30;6.95;;;;;;;3.32;100.00;100762.25;5303593;33;34483;-84
2023/01/11 09:04:26;;;;;;;11.57;6.90;;;;;;;3.47;100.00;100757.53;5304417;33;34407;-84
2023/01/11 09:07:29;;;;;;;13.38;7.18;;;;;;;3.62;100.00;100758.09;5306015;33;33914;-85
2023/01/11 09:10:33;;;;;;;12.52;7.18;;;;;;;3.82;100.00;100764.50;5306631;33;34569;-85
2023/01/11 09:13:36;;;;;;;14.40;7.30;;;;;;;4.12;100.00;100769.13;5306155;33;34824;-85
2023/01/11 09:16:41;;;;;;;10.93;6.50;;;;;;;4.47;100.00;100762.66;5303825;33;34051;-84
2023/01/11 09:19:46;;;;;;;10.98;6.78;;;;;;;4.72;100.00;100756.97;5307019;33;34018;-84
2023/01/11 09:22:51;;;;;;;12.55;6.50;;;;;;;4.87;100.00;100748.63;5298029;33;34016;-82
2023/01/11 09:25:54;;;;;;;11.75;6.68;;;;;;;5.03;100.00;100754.34;5305877;33;34404;-83
2023/01/11 09:28:57;;;;;;;15.30;7.47;;;;;;;5.25;100.00;100755.97;5311647;33;34369;-83
2023/01/11 09:32:00;;;;;;;13.55;7.25;;;;;;;5.42;100.00;100747.31;5305728;33;31640;-84
2023/01/11 09:35:04;;;;;;;9.75;6.25;;;;;;;5.45;100.00;100743.53;5309516;33;34994;-84
2023/01/11 09:38:06;;;;;;;11.23;6.85;;;;;;;5.57;100.00;100741.63;5304097;33;33895;-84
2023/01/11 09:41:43;;;;;;;12.70;6.97;;;;;;;5.74;100.00;100740.94;5306851;33;34107;-85
2023/01/11 09:44:59;;;;;;;11.40;6.65;;;;;;;5.86;100.00;100739.00;5298161;33;32506;-84
2023/01/11 09:48:13;;;;;;;12.20;6.55;;;;;;;6.03;100.00;100735.69;5305132;33;32450;-84
2023/01/11 09:51:18;;;;;;;10.45;6.45;;;;;;;6.27;100.00;100735.25;5311992;33;33988;-85
2023/01/11 09:54:25;;;;;;;12.50;6.82;;;;;;;6.39;100.00;100740.47;5321028;33;34449;-85
2023/01/11 09:58:06;;;;;;;10.55;6.47;;;;;;;6.50;100.00;100741.16;5321488;33;35438;-88
2023/01/11 10:01:18;;;;;;;8.50;6.07;;;;;;;6.54;100.00;100739.03;5305987;33;33939;-85
2023/01/11 10:04:42;;;;;;;13.68;6.22;;;;;;;6.74;100.00;100729.97;5305887;33;34145;-85
2023/01/11 10:08:06;;;;;;;10.75;6.35;;;;;;;6.70;100.00;100719.69;5306327;33;34075;-85
2023/01/11 10:11:51;;;;;;;8.50;6.22;;;;;;;6.87;99.33;100720.78;5304106;33;33703;-85
2023/01/11 10:15:34;;;;;;;10.77;6.15;;;;;;;7.06;98.32;100706.50;5306211;33;32609;-85
2023/01/11 10:19:08;;;;;;;10.20;6.53;;;;;;;7.11;98.43;100696.19;5306272;33;34154;-85
2023/01/11 10:22:41;;;;;;;8.13;5.75;;;;;;;7.31;98.46;100692.44;5306637;33;34074;-85
2023/01/11 10:25:50;;;;;;;11.05;6.40;;;;;;;7.33;97.50;100694.97;5306694;33;33961;-86
2023/01/11 10:29:21;;;;;;;11.70;5.75;;;;;;;7.45;96.27;100691.94;5307931;33;34103;-83
2023/01/11 10:32:38;;;;;;;9.93;6.00;;;;;;;7.53;97.38;100703.75;5306199;33;34063;-83
2023/01/11 10:36:29;;;;;;;10.55;6.35;;;;;;;7.70;96.84;100705.63;5307127;33;34800;-84
2023/01/11 10:43:19;;;;;;;8.85;5.97;;;;;;;7.85;96.08;100711.28;5305294;33;33731;-84
2023/01/11 10:46:25;;;;;;;8.95;5.75;;;;;;;7.84;94.35;100702.41;5304460;33;33251;-84
2023/01/11 10:49:46;;;;;;;9.85;5.72;;;;;;;7.92;93.76;100704.31;5305927;33;34528;-84
2023/01/11 10:53:11;;;;;;;9.75;5.72;;;;;;;7.95;91.30;100696.81;5305062;33;34556;-83
2023/01/11 10:56:20;;;;;;;10.57;5.62;;;;;;;8.04;91.77;100695.03;5302562;33;32475;-85
2023/01/11 10:59:42;;;;;;;8.68;6.00;;;;;;;7.99;91.33;100708.09;5305583;33;33996;-84
2023/01/11 11:03:11;;;;;;;11.32;6.00;;;;;;;8.18;91.46;100707.06;5302273;33;33185;-85
2023/01/11 11:06:19;;;;;;;8.38;5.85;;;;;;;8.35;89.80;100698.16;5302371;33;34255;-89
2023/01/11 11:09:52;;;;;;;8.43;6.07;;;;;;;8.35;91.05;100703.53;5289298;33;34007;-89
2023/01/11 11:13:02;;;;;;;9.15;5.95;;;;;;;8.37;90.65;100698.03;5308786;33;33458;-84
2023/01/11 11:16:20;;;;;;;13.27;6.40;;;;;;;8.45;89.18;100689.22;5311161;33;35025;-84
2023/01/11 11:19:28;;;;;;;12.48;6.90;;;;;;;8.49;90.09;100678.03;5312988;33;35153;-84
2023/01/11 11:22:30;;;;;;;10.27;6.53;;;;;;;8.43;92.21;100667.09;5305903;33;34172;-85
2023/01/11 11:25:40;;;;;;;10.55;6.47;;;;;;;8.46;91.08;100661.41;5311676;33;34248;-84
2023/01/11 11:29:18;;;;;;;9.65;6.22;;;;;;;8.55;92.00;100652.41;5311563;33;32296;-84
2023/01/11 11:32:31;;;;;;;8.55;5.93;;;;;;;8.67;90.18;100655.66;5297542;33;33863;-84
2023/01/11 11:35:40;;;;;;;9.95;6.00;;;;;;;8.91;88.04;100660.31;5307542;33;34617;-84
2023/01/11 11:39:38;;;;;;;12.13;6.10;;;;;;;9.11;85.26;100652.88;5308942;33;33698;-84
2023/01/11 11:42:41;;;;;;;9.27;5.55;;;;;;;9.47;86.26;100643.56;5273719;33;34027;-84
2023/01/11 11:45:58;;;;;;;8.98;5.68;;;;;;;9.77;85.90;100652.06;5270312;33;34396;-85
2023/01/11 11:49:11;;;;;;;8.55;5.60;;;;;;;10.30;81.88;100652.59;5299540;33;33900;-85
2023/01/11 11:52:16;;;;;;;8.57;5.62;;;;;;;10.76;82.42;100652.84;5299213;33;36495;-85
2023/01/11 11:55:26;;;;;;;10.30;6.60;;;;;;;11.24;77.68;100659.09;5300699;33;34286;-85
2023/01/11 11:58:28;;;;;;;;;;;;;;;11.57;76.25;100649.81;5299775;33;34365;-86
2023/01/11 12:01:35;;;;;;;9.68;5.35;;;;;;;11.50;72.45;100654.25;5298059;33;34405;-84
2023/01/11 12:04:47;;;;;;;10.38;5.90;;;;;;;11.53;71.45;100659.28;5293093;33;32785;-85
2023/01/11 12:07:51;;;;;;;10.23;5.37;;;;;;;11.62;70.95;100652.00;5290634;33;32440;-85
2023/01/11 12:11:02;;;;;;;7.53;5.28;;;;;;;12.05;69.38;100657.81;5297773;33;34615;-85
2023/01/11 12:14:16;;;;;;;6.62;4.78;;;;;;;12.30;66.68;100658.41;5293857;33;33836;-85
2023/01/11 12:17:24;;;;;;;7.12;4.70;;;;;;;12.68;65.82;100650.28;5293612;33;32674;-84
2023/01/11 12:20:31;;;;;;;8.23;5.07;;;;;;;13.61;62.08;100644.28;5290752;33;35122;-85
2023/01/11 12:23:34;;;;;;;6.90;4.80;;;;;;;14.21;59.77;100652.97;5290260;33;33031;-85
2023/01/11 12:26:46;;;;;;;9.57;4.85;;;;;;;14.99;55.09;100649.41;5292892;33;33365;-85
2023/01/11 12:30:11;;;;;;;7.47;4.35;;;;;;;15.14;55.50;100648.22;5292587;33;35328;-84
2023/01/11 12:33:13;;;;;;;7.68;4.12;;;;;;;15.56;53.60;100662.59;5292952;33;32931;-84
2023/01/11 12:36:25;;;;;;;5.37;4.00;;;;;;;16.77;50.45;100664.44;5299140;33;32906;-84
2023/01/11 12:39:42;;;;;;;6.78;4.40;;;;;;;16.64;48.39;100657.09;5300806;33;34455;-85
2023/01/11 12:43:28;;;;;;;8.95;3.75;;;;;;;16.42;48.13;100659.22;5292865;33;32779;-84
2023/01/11 12:46:45;;;;;;;4.90;3.50;;;;;;;17.20;45.54;100656.59;5266288;33;34556;-84
2023/01/11 12:50:01;;;;;;;5.15;3.50;;;;;;;16.45;47.74;100653.34;5292933;33;34618;-84
2023/01/11 12:53:25;;;;;;;4.35;3.40;;;;;;;17.56;44.38;100654.37;5289316;33;32300;-84
2023/01/11 12:56:47;;;;;;;4.15;3.47;;;;;;;18.99;42.28;100648.25;5291467;33;32219;-84
2023/01/11 13:00:12;;;;;;;4.55;3.60;;;;;;;21.13;40.06;100646.72;5287693;33;34202;-89
2023/01/11 13:03:34;;;;;;;6.97;3.62;;;;;;;19.92;39.13;100649.84;5297265;33;34057;-84
2023/01/11 13:06:55;;;;;;;5.35;3.58;;;;;;;21.49;37.58;100640.09;5294444;33;34282;-85
2023/01/11 13:10:04;;;;;;;4.50;3.35;;;;;;;21.34;36.29;100631.53;5293361;33;34783;-84
2023/01/11 13:13:11;;;;;;;;;;;;;;;18.90;39.55;100633.25;5294915;33;33966;-84
2023/01/11 13:16:28;;;;;;;4.55;3.47;;;;;;;16.73;43.41;100642.25;5294240;33;34115;-84
2023/01/11 13:19:44;;;;;;;5.28;3.28;;;;;;;16.31;46.14;100640.81;5298938;33;32394;-84
2023/01/11 13:22:52;;;;;;;4.20;3.50;;;;;;;14.52;49.96;100646.38;5301125;33;34691;-85
2023/01/11 13:25:56;;;;;;;4.60;3.40;;;;;;;12.90;55.49;100645.84;5303548;33;34778;-84
2023/01/11 13:29:02;;;;;;;5.93;3.65;;;;;;;11.68;59.63;100651.28;5300924;33;33241;-84
2023/01/11 13:32:22;;;;;;;6.30;3.72;;;;;;;11.16;61.15;100651.88;5305227;33;34135;-84
2023/01/11 13:36:13;;;;;;;5.10;3.42;;;;;;;10.60;63.34;100651.88;5304640;33;32489;-84
2023/01/11 13:39:39;;;;;;;8.57;4.00;;;;;;;9.93;65.61;100654.75;5301694;33;34997;-84
2023/01/11 13:42:47;;;;;;;8.15;4.65;;;;;;;9.61;68.89;100662.75;5303228;33;33065;-84
2023/01/11 13:46:28;;;;;;;6.62;4.65;;;;;;;9.40;70.52;100669.44;5305264;33;33871;-84
2023/01/11 13:49:47;;;;;;;10.25;4.78;;;;;;;9.17;73.43;100666.47;5267952;33;32855;-84
2023/01/11 13:53:00;;;;;;;;;;;;;;;8.90;75.98;100677.44;5304268;33;34442;-84
2023/01/11 13:56:15;;;;;;;7.43;4.50;;;;;;;8.77;76.23;100667.94;5306928;33;34115;-84
2023/01/11 13:59:20;;;;;;;5.18;4.05;;;;;;;8.74;78.29;100668.28;5305215;33;33003;-84
2023/01/11 14:02:46;;;;;;;12.23;5.05;;;;;;;8.66;80.78;100670.94;5304972;33;33511;-84
2023/01/11 14:06:19;;;;;;;6.90;4.80;;;;;;;8.36;80.09;100673.00;5304423;33;32990;-85
2023/01/11 14:09:28;;;;;;;8.15;4.90;;;;;;;8.29;80.62;100673.81;5306983;33;32167;-84
2023/01/11 14:13:01;;;;;;;7.25;4.32;;;;;;;8.15;80.49;100673.34;5308483;33;34047;-84
2023/01/11 14:16:13;;;;;;;10.02;5.15;;;;;;;7.95;84.90;100678.03;5305922;33;33034;-83
2023/01/11 14:19:41;;;;;;;10.52;4.43;;;;;;;7.78;83.57;100662.81;5306418;33;32476;-84
2023/01/11 14:23:06;;;;;;;7.95;4.97;;;;;;;7.70;86.66;100670.78;5304976;33;34756;-83
2023/01/11 14:26:20;;;;;;;6.30;4.40;;;;;;;7.60;85.62;100664.63;5305257;33;34080;-84
2023/01/11 14:29:32;;;;;;;7.62;5.10;;;;;;;7.61;86.33;100653.78;5302828;33;34029;-85
2023/01/11 14:32:35;;;;;;;9.38;5.30;;;;;;;7.56;85.78;100656.06;5303595;33;35041;-91
2023/01/11 14:35:56;;;;;;;10.32;4.80;;;;;;;7.35;87.16;100656.34;5306390;33;33981;-89
2023/01/11 14:39:18;;;;;;;10.77;5.10;;;;;;;7.23;88.11;100657.53;5302935;33;32611;-85
2023/01/11 14:43:00;;;;;;;8.73;5.28;;;;;;;7.03;91.09;100670.16;5296972;33;32331;-84
2023/01/11 14:46:06;;;;;;;9.93;4.68;;;;;;;6.86;91.13;100670.94;5304429;33;33847;-85
2023/01/11 14:49:28;;;;;;;8.95;5.68;;;;;;;6.74;91.95;100664.94;5304667;33;33771;-85
2023/01/11 14:52:35;;;;;;;12.40;6.12;;;;;;;6.71;91.71;100665.22;5304887;33;35227;-85
2023/01/11 14:55:46;;;;;;;10.27;5.75;;;;;;;6.61;94.10;100661.72;5306567;33;35036;-85
2023/01/11 14:59:02;;;;;;;8.57;5.30;;;;;;;6.50;94.73;100665.44;5306369;33;33896;-85
2023/01/11 15:02:05;;;;;;;14.05;6.18;;;;;;;6.30;96.88;100654.75;5306747;33;33844;-84
2023/01/11 15:05:08;;;;;;;12.35;6.07;;;;;;;6.16;98.44;100662.38;5310712;33;35520;-85
2023/01/11 15:08:14;;;;;;;11.43;6.25;;;;;;;6.07;98.58;100659.56;5305923;33;32446;-85
2023/01/11 15:11:40;;;;;;;11.88;6.55;;;;;;;6.07;99.61;100651.53;5307928;33;35101;-85
2023/01/11 15:14:50;;;;;;;12.98;6.07;;;;;;;5.86;100.00;100659.69;5306469;33;35633;-85
2023/01/11 15:21:21;;;;;;;15.65;6.18;;;;;;;5.87;100.00;100650.66;5303801;33;34037;-84
2023/01/11 15:24:31;;;;;;;13.65;6.65;;;;;;;5.77;100.00;100649.00;5303731;33;33597;-85
2023/01/11 15:27:37;;;;;;;14.47;6.87;;;;;;;5.65;100.00;100651.81;5301641;33;34270;-85
2023/01/11 15:30:50;;;;;;;24.45;6.87;;;;;;;5.65;100.00;100667.81;5304403;33;34579;-84
2023/01/11 15:33:54;;;;;;;10.65;5.93;;;;;;;5.50;100.00;100668.34;5298196;33;32783;-85
2023/01/11 15:37:09;;;;;;;12.15;6.07;;;;;;;5.35;100.00;100667.91;5299151;33;33851;-84
2023/01/11 15:40:17;;;;;;;14.90;7.20;;;;;;;5.30;100.00;100670.16;5303048;33;32983;-84
2023/01/11 15:43:45;;;;;;;11.05;6.70;;;;;;;5.19;100.00;100665.75;5298872;33;33089;-85
2023/01/11 15:47:00;;;;;;;12.02;6.72;;;;;;;5.10;100.00;100667.41;5299121;33;32609;-85
2023/01/11 15:50:13;;;;;;;11.57;6.35;;;;;;;4.98;100.00;100665.84;5302185;33;32175;-86
2023/01/11 15:54:00;;;;;;;12.20;6.90;;;;;;;4.88;100.00;100657.78;5300997;33;33457;-85
2023/01/11 15:57:21;;;;;;;14.57;7.05;;;;;;;4.78;100.00;100659.56;5295951;33;33185;-84
2023/01/11 16:00:30;;;;;;;14.50;6.68;;;;;;;4.71;100.00;100667.28;5302584;33;34014;-84
2023/01/11 16:03:54;;;;;;;11.63;6.32;;;;;;;4.65;100.00;100667.81;5306377;33;33951;-84
2023/01/11 16:07:07;;;;;;;13.95;6.43;;;;;;;4.57;100.00;100672.94;5307612;33;34122;-84
2023/01/11 16:10:29;;;;;;;18.92;6.62;;;;;;;4.48;100.00;100663.06;5302763;33;33449;-83
2023/01/11 16:14:17;;;;;;;13.80;7.10;;;;;;;4.43;100.00;100668.78;5307728;33;34082;-84
2023/01/11 16:17:22;;;;;;;11.15;6.28;;;;;;;4.35;100.00;100670.41;5301145;33;34557;-84
2023/01/11 16:20:27;;;;;;;15.68;7.18;;;;;;;4.32;100.00;100664.34;5309272;33;35437;-84
2023/01/11 16:23:32;;;;;;;17.95;6.68;;;;;;;4.25;100.00;100657.87;5300776;33;33636;-84
2023/01/11 16:26:38;;;;;;;15.15;6.80;;;;;;;4.20;100.00;100662.75;5304917;33;33640;-84
2023/01/11 16:29:48;;;;;;;15.75;6.72;;;;;;;4.18;100.00;100656.69;5297123;33;32663;-84
2023/01/11 16:32:51;;;;;;;15.23;7.12;;;;;;;4.16;100.00;100660.47;5295238;33;33853;-84
2023/01/11 16:36:13;;;;;;;15.93;7.35;;;;;;;4.10;100.00;100661.84;5304401;33;34826;-84
2023/01/11 16:39:26;;;;;;;15.00;7.12;;;;;;;4.03;100.00;100665.97;5308000;33;34739;-84
2023/01/11 16:42:33;;;;;;;15.93;6.60;;;;;;;4.00;100.00;100668.91;5305472;33;32652;-84
2023/01/11 16:45:42;;;;;;;14.73;8.23;;;;;;;3.93;100.00;100665.91;5306702;33;34369;-84
2023/01/11 16:48:45;;;;;;;17.77;8.13;;;;;;;4.00;100.00;100671.56;5307029;33;33991;-86
2023/01/11 16:51:47;;;;;;;16.42;7.70;;;;;;;3.88;100.00;100673.44;5306811;33;34042;-85
2023/01/11 16:54:53;;;;;;;12.35;7.72;;;;;;;3.80;100.00;100670.56;5305224;33;32533;-85
2023/01/11 16:57:59;;;;;;;15.90;8.10;;;;;;;3.76;100.00;100669.97;5307565;33;33363;-85
2023/01/11 17:01:04;;;;;;;15.52;7.57;;;;;;;3.71;100.00;100666.84;5307661;33;34386;-85
